Time;durP1;ratioP1;P1;durP2;ratioP2;P2;SDS_P1;SDS_P2;PMS_P1;PMS_P2;Temp;Humidity;BMP_temperature;BMP_pressure;BME280_temperature;BME280_humidity;BME280_pressure;Samples;Min_cycle;Max_cycle;Signal;HPM_P1;HPM_P2
2023/03/01 00:01:00;;;;;;;;;21.50;16.75;;;;;3.52;42.05;102035.41;5017694;28;45383;-59
2023/03/01 00:03:25;;;;;;;;;23.00;20.00;;;;;3.73;41.92;102066.28;4999664;28;47623;-58
2023/03/01 00:05:51;;;;;;;;;19.75;19.25;;;;;3.71;41.54;102070.97;5035175;28;45330;-58
2023/03/01 00:08:16;;;;;;;;;22.75;22.75;;;;;3.60;42.00;102078.19;5025392;28;45400;-58
2023/03/01 00:10:42;;;;;;;;;19.25;14.75;;;;;3.60;42.30;102075.50;5040766;28;45522;-58
2023/03/01 00:13:07;;;;;;;;;23.00;19.75;;;;;3.50;42.36;102077.25;5053484;28;45755;-58
2023/03/01 00:15:34;;;;;;;;;25.75;22.75;;;;;3.36;42.77;102079.31;5049614;28;45274;-58
2023/03/01 00:18:00;;;;;;;;;17.20;17.20;;;;;3.38;42.66;102080.03;5034723;28;45390;-60
2023/03/01 00:20:25;;;;;;;;;21.25;19.50;;;;;3.45;42.44;102082.22;5033532;28;45935;-59
2023/03/01 00:22:51;;;;;;;;;21.25;18.50;;;;;3.51;42.32;102074.44;5034078;28;45490;-58
2023/03/01 00:25:16;;;;;;;;;22.50;19.25;;;;;3.47;42.16;102063.97;5017212;28;45453;-59
2023/03/01 00:27:42;;;;;;;;;21.50;18.00;;;;;3.57;42.61;102081.16;5032198;28;45469;-60
2023/03/01 00:30:08;;;;;;;;;18.75;17.25;;;;;3.59;42.74;102081.03;5034827;28;45322;-60
2023/03/01 00:32:33;;;;;;;;;25.50;21.00;;;;;3.55;42.54;102090.44;5032673;28;47971;-60
2023/03/01 00:34:59;;;;;;;;;24.00;19.75;;;;;3.50;42.78;102066.41;5033173;28;45759;-58
2023/03/01 00:37:25;;;;;;;;;25.25;22.50;;;;;3.47;43.21;102080.25;5036295;28;45428;-56
2023/03/01 00:39:50;;;;;;;;;23.25;19.00;;;;;3.12;42.69;102033.44;5051260;28;45462;-58
2023/03/01 00:42:16;;;;;;;;;21.75;20.00;;;;;3.41;42.76;102081.63;5034383;28;45761;-58
2023/03/01 00:44:41;;;;;;;;;21.75;20.75;;;;;3.41;42.92;102080.78;5032845;28;45413;-61
2023/03/01 00:47:07;;;;;;;;;22.00;20.00;;;;;3.34;43.58;102078.59;5032992;28;45429;-58
2023/03/01 00:49:32;;;;;;;;;22.50;22.00;;;;;3.26;43.19;102067.53;5034353;28;45313;-59
2023/03/01 00:51:58;;;;;;;;;27.00;22.50;;;;;3.37;43.21;102081.03;5033046;28;45999;-59
2023/03/01 00:54:23;;;;;;;;;28.25;21.25;;;;;3.32;43.11;102068.84;5033892;28;45439;-57
2023/03/01 00:56:49;;;;;;;;;23.00;21.00;;;;;3.27;43.29;102080.09;5032794;28;45339;-58
2023/03/01 00:59:14;;;;;;;;;21.50;19.75;;;;;3.09;43.50;102060.81;5034449;28;45398;-58
2023/03/01 01:01:40;;;;;;;;;22.25;21.50;;;;;3.09;43.56;102060.81;5034253;28;46861;-57
2023/03/01 01:04:07;;;;;;;;;27.00;22.75;;;;;3.13;43.64;102075.00;5031356;28;45373;-60
2023/03/01 01:06:42;;;;;;;;;23.25;22.25;;;;;2.92;43.76;102051.38;5032808;28;45466;-58
2023/03/01 01:09:08;;;;;;;;;28.75;23.25;;;;;3.13;43.75;102083.13;5037913;28;45997;-58
2023/03/01 01:11:35;;;;;;;;;30.00;23.50;;;;;3.07;43.99;102079.06;5038659;28;47554;-59
2023/03/01 01:14:00;;;;;;;;;19.20;19.00;;;;;3.08;43.81;102092.53;5032501;28;45836;-59
2023/03/01 01:16:26;;;;;;;;;21.50;18.00;;;;;3.06;43.88;102077.34;5015105;28;45342;-60
2023/03/01 01:18:52;;;;;;;;;22.75;22.75;;;;;2.90;44.13;102064.22;5032675;28;45663;-58
2023/03/01 01:21:20;;;;;;;;;24.25;22.50;;;;;2.72;44.42;102043.06;5032542;28;45571;-59
2023/03/01 01:23:45;;;;;;;;;23.80;21.60;;;;;2.94;44.52;102073.84;5032119;28;45432;-59
2023/03/01 01:26:15;;;;;;;;;18.50;16.75;;;;;2.93;44.10;102066.69;5032716;28;45520;-60
2023/03/01 01:28:40;;;;;;;;;20.50;18.00;;;;;2.98;44.50;102073.44;5031609;28;45346;-58
2023/03/01 01:31:06;;;;;;;;;26.75;19.25;;;;;3.03;44.25;102064.06;5033382;28;45460;-60
2023/03/01 01:33:32;;;;;;;;;18.25;12.25;;;;;2.93;44.39;102055.84;5032317;28;45272;-60
2023/03/01 01:35:57;;;;;;;;;21.00;19.75;;;;;3.01;44.06;102069.63;5033685;28;45320;-60
2023/03/01 01:38:23;;;;;;;;;22.75;22.00;;;;;3.06;44.35;102061.06;5043575;28;45310;-59
2023/03/01 01:40:49;;;;;;;;;25.75;21.75;;;;;3.03;44.56;102050.50;5046241;28;45942;-59
2023/03/01 01:43:28;;;;;;;;;23.75;20.25;;;;;3.04;43.69;102042.22;5031851;28;45850;-59
2023/03/01 01:46:22;;;;;;;;;25.00;21.75;;;;;3.10;44.16;102043.56;5032425;28;45369;-59
2023/03/01 01:48:49;;;;;;;;;24.50;19.50;;;;;3.09;44.12;102045.41;5026783;28;45839;-60
2023/03/01 01:51:19;;;;;;;;;24.00;20.25;;;;;2.93;44.00;102024.13;5031659;28;45649;-59
2023/03/01 01:53:45;;;;;;;;;20.20;19.40;;;;;3.13;44.29;102045.16;5031272;28;45476;-59
2023/03/01 01:56:11;;;;;;;;;20.75;19.50;;;;;3.14;43.73;102036.03;5015776;28;45425;-59
2023/03/01 01:58:37;;;;;;;;;23.00;19.25;;;;;3.18;44.00;102045.59;5015776;28;45593;-59
2023/03/01 02:01:03;;;;;;;;;25.25;25.25;;;;;3.17;43.89;102041.16;5033379;28;45430;-59
2023/03/01 02:03:33;;;;;;;;;24.75;22.00;;;;;3.15;44.29;102030.44;5031904;28;45340;-57
2023/03/01 02:06:37;;;;;;;;;21.20;19.60;;;;;2.91;43.79;101984.56;5030795;28;45429;-57
2023/03/01 02:09:06;;;;;;;;;19.75;18.50;;;;;3.10;43.75;102009.13;4976604;28;46012;-57
2023/03/01 02:11:32;;;;;;;;;31.50;24.00;;;;;2.93;44.07;101991.59;5007615;28;45460;-58
2023/03/01 02:13:58;;;;;;;;;24.25;21.50;;;;;3.00;44.21;102005.50;5033178;28;45473;-57
2023/03/01 02:16:23;;;;;;;;;21.00;19.25;;;;;3.18;44.06;102032.03;5031513;28;45392;-57
2023/03/01 02:18:49;;;;;;;;;19.50;19.00;;;;;3.16;44.57;102042.16;5032827;28;45555;-59
2023/03/01 02:21:20;;;;;;;;;27.50;23.00;;;;;3.20;44.50;102046.34;5034374;28;45528;-58
2023/03/01 02:23:45;;;;;;;;;24.20;21.00;;;;;3.16;44.33;102034.91;5034237;28;45356;-58
2023/03/01 02:26:48;;;;;;;;;23.00;18.00;;;;;3.18;44.48;102029.31;5034804;28;45469;-57
2023/03/01 02:29:14;;;;;;;;;22.75;22.25;;;;;3.05;44.26;102021.38;5033732;28;45754;-58
2023/03/01 02:31:42;;;;;;;;;21.25;19.75;;;;;3.01;44.74;102022.63;5034402;28;46320;-57
2023/03/01 02:34:19;;;;;;;;;26.80;23.00;;;;;2.88;45.58;102020.09;5034529;28;45334;-56
2023/03/01 02:36:47;;;;;;;;;25.25;23.50;;;;;2.95;44.92;102016.72;5033009;28;45654;-58
2023/03/01 02:39:18;;;;;;;;;19.50;13.00;;;;;2.79;45.03;101981.94;5016785;28;45607;-56
2023/03/01 02:41:47;;;;;;;;;30.75;25.75;;;;;2.58;45.35;101955.63;5016990;28;45454;-55
2023/03/01 02:44:13;;;;;;;;;15.00;12.00;;;;;2.29;45.38;101907.44;5033027;28;45417;-58
2023/03/01 02:46:49;;;;;;;;;25.50;21.50;;;;;2.40;45.27;101928.22;5016105;28;45369;-56
2023/03/01 02:49:24;;;;;;;;;23.75;18.50;;;;;2.80;45.41;102007.19;5033308;28;45466;-55
2023/03/01 02:52:13;;;;;;;;;29.75;23.25;;;;;2.76;45.52;102006.59;5033974;28;45496;-57
2023/03/01 02:54:43;;;;;;;;;26.25;23.75;;;;;2.64;45.89;102004.91;5018427;28;45566;-57
2023/03/01 02:57:09;;;;;;;;;25.00;19.00;;;;;2.67;46.00;102008.22;5034603;28;45417;-56
2023/03/01 02:59:40;;;;;;;;;21.50;19.75;;;;;2.70;45.72;102007.09;5034120;28;45715;-59
2023/03/01 03:02:45;;;;;;;;;23.25;21.00;;;;;2.75;45.76;102015.72;5032820;28;46737;-57
2023/03/01 03:05:17;;;;;;;;;30.00;22.80;;;;;2.82;45.96;102007.91;5033859;28;45454;-56
2023/03/01 03:07:44;;;;;;;;;24.80;24.60;;;;;2.77;45.56;101992.03;5032529;28;45501;-55
2023/03/01 03:10:15;;;;;;;;;24.25;23.00;;;;;2.76;45.61;101995.72;5026994;28;45395;-57
2023/03/01 03:12:41;;;;;;;;;29.20;17.20;;;;;2.81;45.67;101996.22;5043519;28;45431;-56
2023/03/01 03:15:08;;;;;;;;;25.00;24.00;;;;;2.25;46.07;101919.53;5052189;28;45604;-55
2023/03/01 03:17:37;;;;;;;;;24.75;21.75;;;;;2.75;45.60;101983.16;5053957;28;45488;-57
2023/03/01 03:20:04;;;;;;;;;22.25;22.25;;;;;2.80;45.62;101985.50;5052595;28;45339;-55
2023/03/01 03:22:30;;;;;;;;;24.75;24.00;;;;;2.70;45.82;101970.00;5035558;28;46360;-56
2023/03/01 03:24:56;;;;;;;;;25.40;22.20;;;;;2.62;45.72;101955.38;5035515;28;45313;-56
2023/03/01 03:27:21;;;;;;;;;29.00;21.75;;;;;2.85;45.84;101978.66;5054125;28;45404;-55
2023/03/01 03:29:47;;;;;;;;;28.00;25.25;;;;;2.90;45.41;101980.13;5055926;28;45361;-56
2023/03/01 03:32:12;;;;;;;;;30.75;24.75;;;;;2.93;45.71;101988.03;5057448;28;46561;-55
2023/03/01 03:34:37;;;;;;;;;27.75;23.00;;;;;2.78;45.96;101982.91;5057007;28;45388;-56
2023/03/01 03:37:03;;;;;;;;;26.75;20.25;;;;;2.78;46.12;101982.91;5057345;28;45354;-55
2023/03/01 03:39:34;;;;;;;;;30.50;23.25;;;;;2.65;46.27;101974.06;5057383;28;45610;-57
2023/03/01 03:42:00;;;;;;;;;25.75;24.50;;;;;2.54;46.38;101978.56;5056595;28;46726;-55
2023/03/01 03:44:25;;;;;;;;;24.25;20.75;;;;;2.63;46.20;101986.91;5055830;28;45409;-56
2023/03/01 03:46:51;;;;;;;;;23.50;23.50;;;;;2.67;46.46;101977.53;5056183;28;45361;-55
2023/03/01 03:49:16;;;;;;;;;27.25;25.00;;;;;2.66;46.09;101973.13;5057012;28;45410;-57
2023/03/01 03:51:42;;;;;;;;;28.75;21.50;;;;;2.75;46.15;101972.31;5055546;28;45639;-55
2023/03/01 03:54:07;;;;;;;;;19.50;18.00;;;;;2.73;46.26;101981.56;5055182;28;45448;-56
2023/03/01 03:56:33;;;;;;;;;30.75;23.50;;;;;2.75;46.53;101972.31;5057370;28;45366;-55
2023/03/01 03:58:58;;;;;;;;;36.25;29.75;;;;;2.71;45.91;101970.84;5038766;28;45490;-56
2023/03/01 04:01:24;;;;;;;;;30.75;21.00;;;;;2.10;46.42;101880.19;5055162;28;47102;-55
2023/03/01 04:03:54;;;;;;;;;29.25;23.25;;;;;2.58;46.28;101979.19;5056539;28;45429;-53
2023/03/01 04:06:19;;;;;;;;;25.25;22.00;;;;;2.16;46.08;101912.16;5055134;28;45198;-56
2023/03/01 04:08:45;;;;;;;;;30.25;25.00;;;;;2.67;46.21;101978.38;5055504;28;45362;-55
2023/03/01 04:11:25;;;;;;;;;29.75;25.50;;;;;2.57;46.36;101964.75;5053127;28;46370;-56
2023/03/01 04:13:52;;;;;;;;;24.25;23.50;;;;;2.58;47.04;101979.19;5035394;28;45376;-53
2023/03/01 04:16:18;;;;;;;;;32.75;30.25;;;;;2.63;46.39;101981.50;5036364;28;45388;-55
2023/03/01 04:18:44;;;;;;;;;28.75;22.75;;;;;2.46;46.20;101945.84;5036780;28;45156;-55
2023/03/01 04:21:11;;;;;;;;;29.00;23.00;;;;;2.58;46.19;101955.63;5035934;28;46618;-55
2023/03/01 04:23:36;;;;;;;;;31.50;27.00;;;;;2.39;46.55;101922.91;5018097;28;45402;-56
2023/03/01 04:26:02;;;;;;;;;31.50;26.50;;;;;2.59;46.27;101975.47;5035209;28;45365;-54
2023/03/01 04:28:36;;;;;;;;;18.25;16.00;;;;;2.58;47.17;101981.88;5018602;28;45700;-55
2023/03/01 04:31:12;;;;;;;;;24.00;22.75;;;;;2.50;46.56;101965.41;5036159;28;46267;-56
2023/03/01 04:33:56;;;;;;;;;25.50;25.50;;;;;2.25;46.78;101926.81;5035963;28;45810;-61
2023/03/01 04:36:26;;;;;;;;;28.00;20.50;;;;;2.07;47.39;101907.53;5036032;28;45414;-56
2023/03/01 04:38:52;;;;;;;;;33.00;25.25;;;;;2.36;47.58;101962.00;5034738;28;45482;-56
2023/03/01 04:41:19;;;;;;;;;27.75;24.50;;;;;2.32;47.29;101962.38;5035539;28;46317;-56
2023/03/01 04:43:44;;;;;;;;;28.20;25.80;;;;;2.32;47.62;101952.41;5034733;28;45350;-55
2023/03/01 04:46:12;;;;;;;;;26.50;21.50;;;;;2.32;47.45;101962.38;5035964;28;45384;-55
2023/03/01 04:48:38;;;;;;;;;27.50;20.00;;;;;2.35;47.37;101959.41;5035655;28;45556;-56
2023/03/01 04:51:04;;;;;;;;;24.75;22.50;;;;;2.33;47.53;101954.13;5034174;28;46651;-54
2023/03/01 04:53:29;;;;;;;;;25.50;24.50;;;;;2.12;47.44;101911.56;5035651;28;45453;-56
2023/03/01 04:55:55;;;;;;;;;31.50;25.25;;;;;2.35;47.47;101949.41;5035666;28;45351;-55
2023/03/01 04:58:23;;;;;;;;;23.25;23.00;;;;;2.37;47.53;101952.88;5036017;28;45520;-56
2023/03/01 05:00:48;;;;;;;;;25.50;22.25;;;;;2.30;47.56;101944.38;5035377;28;46362;-57
2023/03/01 05:03:17;;;;;;;;;37.75;29.50;;;;;2.19;47.26;101917.31;5035418;28;45220;-56
2023/03/01 05:05:44;;;;;;;;;14.75;12.75;;;;;2.36;47.61;101950.28;5018156;28;45393;-56
2023/03/01 05:08:17;;;;;;;;;28.25;22.75;;;;;2.38;47.93;101953.72;5035750;28;45489;-55
2023/03/01 05:10:46;;;;;;;;;22.50;20.50;;;;;2.36;47.66;101950.28;5035445;28;46667;-55
2023/03/01 05:13:13;;;;;;;;;27.25;23.75;;;;;2.38;47.30;101938.34;5055011;28;45224;-56
2023/03/01 05:15:39;;;;;;;;;26.00;24.25;;;;;2.50;47.09;101947.28;5053841;28;45283;-56
2023/03/01 05:18:07;;;;;;;;;25.25;21.50;;;;;2.53;47.19;101941.63;5037693;28;45608;-57
2023/03/01 05:20:36;;;;;;;;;29.25;26.75;;;;;2.59;47.45;101945.66;5053702;28;45404;-55
2023/03/01 05:23:04;;;;;;;;;22.50;22.25;;;;;2.40;47.71;101922.81;5055455;28;45207;-55
2023/03/01 05:25:32;;;;;;;;;28.75;25.00;;;;;2.47;47.51;101939.41;5055232;28;45370;-56
2023/03/01 05:28:04;;;;;;;;;26.50;23.00;;;;;2.52;47.65;101945.28;5055362;28;45575;-55
2023/03/01 05:30:30;;;;;;;;;27.00;25.25;;;;;2.54;47.67;101948.75;5055310;28;46504;-56
2023/03/01 05:32:56;;;;;;;;;34.00;29.25;;;;;2.54;47.28;101953.31;5053733;28;45504;-58
2023/03/01 05:35:21;;;;;;;;;30.75;27.25;;;;;2.54;47.30;101953.31;5055494;28;45313;-56
2023/03/01 05:37:47;;;;;;;;;27.00;26.50;;;;;1.81;47.60;101835.56;5055353;28;45585;-57
2023/03/01 05:40:15;;;;;;;;;29.00;21.50;;;;;2.19;47.70;101916.47;5054847;28;45514;-51
2023/03/01 05:42:54;;;;;;;;;29.50;23.25;;;;;2.33;48.02;101937.84;5055284;28;45369;-53
2023/03/01 05:45:19;;;;;;;;;32.50;26.50;;;;;2.25;48.31;101943.91;5037673;28;45184;-55
2023/03/01 05:47:45;;;;;;;;;26.50;24.25;;;;;1.81;48.67;101880.75;5055201;28;45171;-55
2023/03/01 05:50:18;;;;;;;;;29.25;26.25;;;;;2.06;48.92;101930.16;5053697;28;46534;-54
2023/03/01 05:52:43;;;;;;;;;28.75;25.50;;;;;1.95;48.56;101907.56;5053476;28;45295;-54
2023/03/01 05:55:09;;;;;;;;;29.50;23.00;;;;;2.05;48.31;101910.34;5055192;28;45357;-55
2023/03/01 05:57:35;;;;;;;;;31.50;29.75;;;;;2.27;48.09;101928.41;5055450;28;45590;-56
2023/03/01 06:00:01;;;;;;;;;33.50;26.75;;;;;2.07;48.10;101891.28;5036413;28;45776;-57
2023/03/01 06:02:27;;;;;;;;;34.25;31.50;;;;;1.98;48.42;101893.75;5053409;28;45473;-54
2023/03/01 06:04:52;;;;;;;;;27.25;27.00;;;;;2.28;48.27;101932.81;5053476;28;45358;-56
2023/03/01 06:07:18;;;;;;;;;26.25;24.75;;;;;2.30;48.21;101936.25;5055198;28;45258;-55
2023/03/01 06:09:44;;;;;;;;;27.25;24.75;;;;;2.27;48.96;101933.81;5053765;28;46474;-55
2023/03/01 06:12:09;;;;;;;;;34.25;25.25;;;;;2.02;48.92;101902.47;5002707;28;45799;-55
2023/03/01 06:14:35;;;;;;;;;32.75;31.75;;;;;1.98;48.66;101891.03;5034541;28;45637;-56
2023/03/01 06:17:00;;;;;;;;;38.25;32.50;;;;;2.03;48.50;101896.09;5034707;28;45181;-54
2023/03/01 06:19:26;;;;;;;;;35.75;27.25;;;;;2.25;48.37;101922.22;5033139;28;47278;-53
2023/03/01 06:21:51;;;;;;;;;33.75;30.75;;;;;2.22;48.92;101918.91;5034444;28;45264;-55
2023/03/01 06:24:17;;;;;;;;;41.75;33.00;;;;;1.99;49.61;101908.16;5034571;28;45754;-55
2023/03/01 06:26:42;;;;;;;;;15.50;14.50;;;;;1.75;49.56;101855.03;5033685;28;45355;-59
2023/03/01 06:29:08;;;;;;;;;36.25;30.75;;;;;1.86;49.41;101875.78;5034453;28;46033;-55
2023/03/01 06:31:34;;;;;;;;;35.25;33.25;;;;;1.88;49.78;101881.97;5033053;28;45286;-56
2023/03/01 06:33:59;;;;;;;;;41.75;33.50;;;;;2.01;49.88;101908.88;5033231;28;45319;-55
2023/03/01 06:36:25;;;;;;;;;40.75;37.00;;;;;2.06;49.29;101908.50;5034772;28;45283;-55
2023/03/01 06:38:50;;;;;;;;;38.50;33.25;;;;;2.04;49.24;101897.81;5034551;28;46669;-53
2023/03/01 06:41:15;;;;;;;;;41.25;34.75;;;;;2.15;49.15;101913.16;5032591;28;45418;-55
2023/03/01 06:43:41;;;;;;;;;38.50;33.00;;;;;1.96;49.40;101874.06;5034725;28;45294;-55
2023/03/01 06:46:06;;;;;;;;;34.00;28.00;;;;;1.51;49.23;101806.47;5016627;28;45334;-54
2023/03/01 06:48:33;;;;;;;;;40.00;35.00;;;;;2.12;49.30;101902.56;5034082;28;45960;-57
2023/03/01 06:51:00;;;;;;;;;31.50;25.25;;;;;2.12;49.68;101898.03;5034134;28;45452;-56
2023/03/01 06:53:27;;;;;;;;;35.00;32.25;;;;;2.09;49.60;101911.81;5034129;28;45395;-55
2023/03/01 06:56:01;;;;;;;;;29.25;28.75;;;;;2.11;50.04;101903.56;5032875;28;45452;-55
2023/03/01 06:58:27;;;;;;;;;37.75;34.50;;;;;2.03;50.05;101894.22;5033734;28;46178;-54
2023/03/01 07:00:52;;;;;;;;;46.25;40.50;;;;;2.05;49.78;101898.66;5032321;28;45349;-57
2023/03/01 07:03:18;;;;;;;;;38.25;36.25;;;;;2.06;49.91;101903.06;5035382;28;45411;-55
2023/03/01 07:05:44;;;;;;;;;46.50;40.50;;;;;2.05;50.01;101902.22;5036482;28;45398;-56
2023/03/01 07:08:10;;;;;;;;;40.75;38.25;;;;;2.03;50.23;101902.34;5037418;28;47593;-56
2023/03/01 07:10:35;;;;;;;;;48.50;38.25;;;;;1.95;50.46;101879.59;5035576;28;45342;-55
2023/03/01 07:13:01;;;;;;;;;40.00;35.00;;;;;1.93;50.16;101881.56;5036495;28;45410;-56
2023/03/01 07:15:27;;;;;;;;;41.75;36.75;;;;;2.02;49.78;101888.94;5056031;28;45634;-56
2023/03/01 07:17:53;;;;;;;;;43.50;35.00;;;;;2.09;50.17;101889.28;5057128;28;46231;-54
2023/03/01 07:20:22;;;;;;;;;48.75;39.50;;;;;2.17;50.24;101898.50;5056856;28;45471;-56
2023/03/01 07:22:48;;;;;;;;;40.00;37.25;;;;;2.24;49.92;101890.72;5055854;28;45434;-54
2023/03/01 07:25:13;;;;;;;;;34.50;34.50;;;;;2.24;49.85;101900.72;5057639;28;45563;-57
2023/03/01 07:27:39;;;;;;;;;45.00;40.25;;;;;2.19;50.27;101903.78;5056584;28;45482;-57
2023/03/01 07:30:05;;;;;;;;;56.25;39.50;;;;;2.13;50.31;101894.31;5057717;28;45508;-56
2023/03/01 07:32:31;;;;;;;;;49.50;38.75;;;;;1.86;50.27;101859.53;5055707;28;45440;-55
2023/03/01 07:34:56;;;;;;;;;53.33;42.67;;;;;2.10;50.30;101886.47;5056352;28;45559;-56
2023/03/01 07:37:22;;;;;;;;;43.50;41.75;;;;;2.16;50.31;101895.91;5057131;28;45492;-57
2023/03/01 07:39:47;;;;;;;;;43.75;40.75;;;;;2.25;49.98;101897.84;5072237;28;45402;-57
2023/03/01 07:42:13;;;;;;;;;42.00;30.25;;;;;2.25;49.92;101889.72;5039044;28;45427;-56
2023/03/01 07:44:38;;;;;;;;;45.00;42.00;;;;;2.30;49.53;101903.75;5057106;28;45410;-56
2023/03/01 07:47:04;;;;;;;;;49.50;42.00;;;;;2.20;49.61;101881.13;5056972;28;46665;-56
2023/03/01 07:49:29;;;;;;;;;49.33;42.33;;;;;2.32;49.67;101895.50;5055372;28;45448;-59
2023/03/01 07:51:55;;;;;;;;;50.33;42.33;;;;;2.12;49.31;101854.69;5056368;28;45353;-56
2023/03/01 07:54:21;;;;;;;;;39.00;35.50;;;;;2.34;49.33;101877.25;5039407;28;45596;-57
2023/03/01 07:56:47;;;;;;;;;45.67;41.33;;;;;2.46;50.16;101897.06;5056486;28;46100;-56
2023/03/01 07:59:12;;;;;;;;;55.00;44.33;;;;;2.45;49.11;101889.88;5057085;28;45429;-56
2023/03/01 08:01:38;;;;;;;;;48.50;42.00;;;;;2.46;49.69;101897.06;5056601;28;45326;-57
2023/03/01 08:04:06;;;;;;;;;51.75;42.25;;;;;2.41;49.52;101900.13;5057023;28;45586;-55
2023/03/01 08:06:34;;;;;;;;;50.00;44.33;;;;;2.36;50.26;101896.09;5056722;28;45400;-58
2023/03/01 08:08:59;;;;;;;;;47.00;38.00;;;;;2.44;49.80;101899.00;5055589;28;45364;-58
2023/03/01 08:11:25;;;;;;;;;45.50;39.25;;;;;2.48;49.88;101891.47;5052184;28;45462;-56
2023/03/01 08:13:51;;;;;;;;;50.75;40.50;;;;;2.55;49.40;101904.38;5036315;28;45603;-57
2023/03/01 08:16:16;;;;;;;;;47.00;39.67;;;;;2.48;49.08;101881.50;5034868;28;45443;-55
2023/03/01 08:18:42;;;;;;;;;52.00;40.75;;;;;2.57;49.14;101893.44;5036267;28;45421;-56
2023/03/01 08:21:10;;;;;;;;;47.50;37.25;;;;;2.52;48.83;101876.69;5036440;28;45369;-55
2023/03/01 08:23:35;;;;;;;;;53.25;42.75;;;;;2.64;48.92;101888.31;5018725;28;45462;-55
2023/03/01 08:26:06;;;;;;;;;50.50;43.75;;;;;2.60;49.26;101876.88;5034435;28;45962;-56
2023/03/01 08:28:32;;;;;;;;;47.75;41.75;;;;;2.57;48.79;101855.47;5036693;28;45296;-57
2023/03/01 08:30:57;;;;;;;;;46.00;41.00;;;;;2.79;48.55;101881.59;5036774;28;45274;-56
2023/03/01 08:33:23;;;;;;;;;37.50;33.75;;;;;2.67;48.58;101855.53;5018963;28;45388;-54
2023/03/01 08:35:48;;;;;;;;;49.50;41.25;;;;;2.79;48.64;101881.59;5018660;28;45499;-57
2023/03/01 08:38:14;;;;;;;;;47.25;42.25;;;;;2.71;48.67;101860.56;5035920;28;45287;-57
2023/03/01 08:40:40;;;;;;;;;45.25;41.25;;;;;2.74;48.62;101859.44;5018789;28;45387;-58
2023/03/01 08:43:05;;;;;;;;;50.25;42.75;;;;;2.91;48.53;101876.09;5035314;28;45706;-59
2023/03/01 08:45:31;;;;;;;;;49.25;44.75;;;;;2.89;48.60;101875.38;5036399;28;46440;-59
2023/03/01 08:47:56;;;;;;;;;41.75;37.50;;;;;2.92;48.48;101875.09;5034770;28;45380;-57
2023/03/01 08:50:24;;;;;;;;;39.00;37.75;;;;;2.95;48.41;101870.25;5035752;28;45534;-57
2023/03/01 08:52:49;;;;;;;;;48.50;41.50;;;;;3.08;48.51;101866.47;5034944;28;45422;-59
2023/03/01 08:55:16;;;;;;;;;50.00;43.50;;;;;2.98;48.36;101869.13;5017950;28;46199;-57
2023/03/01 08:57:43;;;;;;;;;50.25;43.25;;;;;2.69;48.39;101823.72;5034692;28;46177;-56
2023/03/01 09:00:11;;;;;;;;;50.00;42.00;;;;;2.98;48.18;101861.88;5034397;28;45897;-57
2023/03/01 09:02:36;;;;;;;;;47.50;39.25;;;;;3.04;48.05;101860.44;5034605;28;45424;-57
2023/03/01 09:05:02;;;;;;;;;48.00;42.25;;;;;3.10;48.06;101846.34;5035553;28;45649;-58
2023/03/01 09:07:30;;;;;;;;;52.25;43.25;;;;;3.20;47.76;101853.69;5035636;28;45330;-56
2023/03/01 09:09:55;;;;;;;;;47.75;42.00;;;;;3.09;47.55;101819.34;5036440;28;45174;-56
2023/03/01 09:12:22;;;;;;;;;44.00;42.00;;;;;3.24;48.02;101844.28;5031169;28;45628;-55
2023/03/01 09:14:47;;;;;;;;;46.25;41.00;;;;;3.30;47.40;101842.88;5027503;28;48128;-57
2023/03/01 09:17:13;;;;;;;;;49.25;44.00;;;;;3.37;47.63;101844.91;5033571;28;45340;-56
2023/03/01 09:19:38;;;;;;;;;50.00;43.00;;;;;3.43;47.09;101829.06;5035834;28;45274;-56
2023/03/01 09:22:04;;;;;;;;;43.25;39.50;;;;;3.45;47.14;101827.94;5034403;28;45310;-54
2023/03/01 09:24:29;;;;;;;;;50.50;38.50;;;;;3.44;46.90;101811.78;5035259;28;45306;-52
2023/03/01 09:26:55;;;;;;;;;47.75;42.25;;;;;3.47;47.00;101822.38;5033263;28;45376;-57
2023/03/01 09:29:21;;;;;;;;;55.25;41.75;;;;;3.05;47.06;101733.84;5035580;28;45406;-56
2023/03/01 09:31:46;;;;;;;;;43.00;37.75;;;;;3.66;46.98;101816.13;5017797;28;45319;-57
2023/03/01 09:34:15;;;;;;;;;52.25;42.25;;;;;3.65;46.87;101817.13;5033877;28;46310;-56
2023/03/01 09:36:41;;;;;;;;;48.25;42.50;;;;;3.70;46.30;101812.13;5033938;28;45416;-56
2023/03/01 09:39:06;;;;;;;;;47.50;37.25;;;;;3.73;46.51;101811.00;5034024;28;45366;-55
2023/03/01 09:41:51;;;;;;;;;49.75;40.75;;;;;3.62;46.30;101803.81;5035271;28;45420;-57
2023/03/01 09:44:35;;;;;;;;;44.50;40.50;;;;;3.77;46.72;101804.28;5033787;28;45392;-56
2023/03/01 09:47:01;;;;;;;;;50.75;42.75;;;;;3.85;46.59;101809.84;5035155;28;45343;-57
2023/03/01 09:49:49;;;;;;;;;41.75;35.00;;;;;3.72;46.30;101807.41;5035119;28;45428;-57
2023/03/01 09:52:31;;;;;;;;;51.25;42.00;;;;;3.68;46.53;101795.09;5033330;28;45363;-59
2023/03/01 09:54:57;;;;;;;;;43.75;39.25;;;;;3.70;46.28;101806.72;5033747;28;45449;-56
2023/03/01 09:57:34;;;;;;;;;52.00;41.00;;;;;3.75;46.20;101800.84;5034756;28;45299;-56
2023/03/01 10:00:08;;;;;;;;;46.25;40.50;;;;;3.61;46.62;101762.25;5034340;28;45261;-57
2023/03/01 10:02:56;;;;;;;;;41.75;37.50;;;;;3.86;45.95;101786.28;5033129;28;45541;-57
2023/03/01 10:05:31;;;;;;;;;36.00;36.00;;;;;3.91;46.18;101790.25;5034845;28;46802;-58
2023/03/01 10:08:36;;;;;;;;;53.50;42.75;;;;;3.91;46.66;101787.56;5035008;28;45477;-54
2023/03/01 10:11:02;;;;;;;;;55.00;41.75;;;;;3.97;46.23;101766.25;5035092;28;45463;-58
2023/03/01 10:13:37;;;;;;;;;45.75;42.25;;;;;4.15;46.32;101783.56;5007478;28;45572;-56
2023/03/01 10:16:13;;;;;;;;;46.50;40.75;;;;;4.25;45.58;101785.41;5033452;28;46208;-56
2023/03/01 10:18:39;;;;;;;;;42.50;37.25;;;;;4.40;45.27;101781.25;5032977;28;45414;-57
2023/03/01 10:21:23;;;;;;;;;43.50;36.75;;;;;4.58;45.29;101784.06;5017246;28;46280;-55
2023/03/01 10:23:52;;;;;;;;;49.00;38.75;;;;;4.79;44.72;101765.84;5034452;28;45540;-58
2023/03/01 10:26:57;;;;;;;;;54.50;43.25;;;;;5.02;43.80;101766.34;5034366;28;47065;-60
2023/03/01 10:29:25;;;;;;;;;41.75;38.75;;;;;4.92;44.28;101733.72;5033029;28;45362;-58
2023/03/01 10:31:51;;;;;;;;;42.75;39.25;;;;;5.29;43.59;101770.91;5032765;28;45360;-59
2023/03/01 10:34:20;;;;;;;;;49.25;44.00;;;;;5.47;43.30;101767.38;5016514;28;45644;-58
2023/03/01 10:36:50;;;;;;;;;44.75;40.50;;;;;5.59;43.05;101772.63;5032415;28;46942;-59
2023/03/01 10:39:18;;;;;;;;;49.75;41.75;;;;;5.68;43.13;101766.22;5032567;28;45486;-52
2023/03/01 10:42:20;;;;;;;;;58.75;44.00;;;;;5.67;42.67;101773.53;5014242;28;45428;-55
2023/03/01 10:44:47;;;;;;;;;43.25;41.00;;;;;5.63;43.19;101760.38;5002250;28;45591;-56
2023/03/01 10:47:16;;;;;;;;;45.50;40.00;;;;;5.54;42.75;101763.03;5032941;28;45426;-55
2023/03/01 10:49:57;;;;;;;;;52.50;40.25;;;;;5.60;42.77;101768.88;5032597;28;45355;-52
2023/03/01 10:52:27;;;;;;;;;47.50;41.00;;;;;5.71;42.94;101760.47;5033047;28;45533;-55
2023/03/01 10:54:59;;;;;;;;;46.00;37.00;;;;;5.65;42.68;101739.31;5033130;28;45409;-56
2023/03/01 10:57:32;;;;;;;;;43.75;36.50;;;;;5.67;42.01;101751.75;5014749;28;45525;-58
2023/03/01 11:00:24;;;;;;;;;46.25;39.25;;;;;5.72;42.01;101756.75;5031592;28;45943;-56
2023/03/01 11:02:51;;;;;;;;;44.75;38.75;;;;;5.66;42.04;101735.56;5032005;28;45421;-54
2023/03/01 11:05:20;;;;;;;;;43.50;37.25;;;;;5.52;42.41;101710.59;5031852;28;45390;-56
2023/03/01 11:07:52;;;;;;;;;45.25;39.25;;;;;5.68;42.37;101750.75;5032964;28;46415;-54
2023/03/01 11:10:31;;;;;;;;;43.25;38.00;;;;;5.69;42.50;101749.75;5014515;28;45383;-56
2023/03/01 11:13:15;;;;;;;;;42.00;37.25;;;;;5.86;41.87;101743.59;5044110;28;45406;-54
2023/03/01 11:15:40;;;;;;;;;45.00;37.75;;;;;5.94;41.68;101736.31;4982909;28;46118;-55
2023/03/01 11:18:19;;;;;;;;;47.25;40.75;;;;;5.97;41.97;101743.34;4993717;28;45620;-57
2023/03/01 11:20:44;;;;;;;;;44.25;39.25;;;;;5.97;42.04;101733.31;4979708;28;45668;-52
2023/03/01 11:23:12;;;;;;;;;45.25;38.50;;;;;6.13;41.55;101739.09;5028430;28;45380;-56